• Join FlightAware (Why Join?)
  • Login
  • US Flag 
07:13AM EDT


 

Airport Tracker/Info


-or-


 

Live Flight TrackerFlight Track Log ✈ FDX1409 ✈ 16-Nov-2013 ✈ KMEM - KMCO

Flight Track Log - Related Links

Times and Time Zones

All times are in EST time to prevent confusion due to time zone crossing. See the FDX1409 flight status page for this flight to view local times or setup timezone preferences in your user account.

Time Position Orientation Groundspeed Altitude Reporting Facility
EST Latitude Longitude Course Direction KTS MPH feet Rate Location/Type
05:09AM 35.0167 -89.9833 180° South 174 200 1,000  Level KMEM
05:10AM 34.9833 -89.9833 180° South 169 194 2,100 2,040 Climbing KMEM
05:11AM 34.9167 -89.9833 180° South 247 284 4,900 2,520 Climbing KMEM
05:12AM 34.8733 -89.9867 184° South 235 270 6,400 2,580 Climbing Memphis Center
05:13AM 34.8086 -89.9406 150° Southeast 268 308 9,100 2,340 Climbing Memphis Center
05:14AM 34.7433 -89.8833 144° Southeast 283 326 11,200 1,680 Climbing Memphis Center
05:15AM 34.6669 -89.8175 145° Southeast 329 379 12,500 1,500 Climbing Memphis Center
05:20AM 34.2010 -89.2290 145° Southeast 488 562 21,200 1,560 Climbing FlightAware
05:21AM 34.1600 -89.1690 130° Southeast 488 562 21,900 960 Climbing FlightAware
05:22AM 34.0810 -89.0460 128° Southeast 497 572 22,700 1,260 Climbing FlightAware
05:22AM 34.0110 -88.9400 129° Southeast 509 586 24,100 1,680 Climbing FlightAware
05:23AM 33.9520 -88.8510 129° Southeast 511 588 25,100 1,200 Climbing FlightAware
05:23AM 33.9270 -88.8130 128° Southeast 514 592 25,300 780 Climbing FlightAware
05:24AM 33.8870 -88.7540 129° Southeast 520 598 25,700 840 Climbing FlightAware
05:24AM 33.8330 -88.6710 128° Southeast 526 605 26,200 300 Climbing FlightAware
05:25AM 33.7700 -88.5730 128° Southeast 526 605 26,200 900 Level FlightAware
05:26AM 33.6980 -88.4670 129° Southeast 543 625 27,500 960 Climbing FlightAware
05:27AM 33.6260 -88.3570 128° Southeast 544 626 27,700 120 Climbing FlightAware
05:27AM 33.5790 -88.2840 128° Southeast 544 626 27,700  Level FlightAware
05:28AM 33.5310 -88.2110 128° Southeast 544 626 27,700  Level FlightAware
05:29AM 33.4680 -88.1140 128° Southeast 544 626 27,700  Level FlightAware
05:29AM 33.4210 -88.0420 128° Southeast 544 626 27,700 3,600 Level FlightAware
05:30AM 33.3100 -87.8880 131° Southeast 536 617 32,200 3,960 Climbing FlightAware
05:30AM 33.2530 -87.8060 130° Southeast 536 617 32,700 720 Climbing FlightAware
05:31AM 33.2010 -87.7270 128° Southeast 538 619 33,100 720 Climbing FlightAware
05:32AM 33.1430 -87.6420 129° Southeast 537 618 33,600 720 Climbing FlightAware
05:32AM 33.1010 -87.5800 129° Southeast 538 619 33,900 240 Climbing FlightAware
05:33AM 33.0200 -87.4610 129° Southeast 544 626 34,000 60 Climbing FlightAware
05:34AM 32.9710 -87.3900 129° Southeast 544 626 34,000  Level FlightAware
05:35AM 32.8730 -87.2450 129° Southeast 544 626 34,000  Level FlightAware
05:35AM 32.8410 -87.1980 129° Southeast 544 626 34,000  Level FlightAware
05:36AM 32.7920 -87.1270 129° Southeast 544 626 34,000  Level FlightAware
05:37AM 32.7280 -87.0320 129° Southeast 544 626 34,000  Level FlightAware
05:37AM 32.6790 -86.9610 129° Southeast 544 626 34,000  Level FlightAware
05:38AM 32.6290 -86.8870 129° Southeast 544 626 34,000 1,620 Level FlightAware
05:39AM 32.4030 -86.5860 132° Southeast 567 652 37,000 1,800 Climbing FlightAware
05:39AM 32.3650 -86.5310 129° Southeast 571 657 37,000  Level FlightAware
05:40AM 32.2810 -86.4140 130° Southeast 574 661 37,000  Level FlightAware
05:41AM 32.2100 -86.3150 130° Southeast 575 662 37,000  Level FlightAware
05:42AM 32.0930 -86.1520 130° Southeast 575 662 37,000  Level FlightAware
05:43AM 31.9840 -85.9990 130° Southeast 574 661 37,000  Level FlightAware
05:44AM 31.8990 -85.8850 131° Southeast 575 662 37,000  Level FlightAware
05:44AM 31.8440 -85.8090 130° Southeast 575 662 37,000  Level FlightAware
05:45AM 31.7740 -85.7110 130° Southeast 575 662 37,000  Level FlightAware
05:46AM 31.7170 -85.6330 131° Southeast 573 659 37,000  Level FlightAware
05:46AM 31.6620 -85.5570 130° Southeast 574 661 37,000 60 Level FlightAware
05:47AM 31.6100 -85.4860 131° Southeast 573 659 37,100  Climbing FlightAware
05:47AM 31.5330 -85.3820 131° Southeast 573 659 37,000 -120 Descending FlightAware
05:48AM 31.4620 -85.2860 131° Southeast 574 661 37,000  Level FlightAware
05:49AM 31.4150 -85.2220 131° Southeast 573 659 37,000  Level FlightAware
05:50AM 31.3050 -85.0720 131° Southeast 572 658 37,000  Level FlightAware
05:50AM 31.2670 -85.0200 131° Southeast 572 658 37,000  Level FlightAware
05:51AM 31.1930 -84.9200 131° Southeast 572 658 37,000  Level FlightAware
05:51AM 31.1310 -84.8350 130° Southeast 572 658 37,000  Level FlightAware
05:52AM 31.0780 -84.7620 130° Southeast 572 658 37,000  Level FlightAware
05:53AM 30.9850 -84.6420 132° Southeast 573 659 37,000  Level FlightAware
05:54AM 30.9020 -84.5310 131° Southeast 572 658 37,000  Level FlightAware
05:54AM 30.8290 -84.4360 132° Southeast 573 659 37,000  Level FlightAware
05:55AM 30.7730 -84.3610 131° Southeast 573 659 37,000  Level FlightAware
05:55AM 30.7241 -84.2967 131° Southeast 573 659 37,000  Level FlightAware ADS-B (KTLH)
05:56AM 30.6721 -84.2270 131° Southeast 573 659 37,000  Level FlightAware ADS-B (KTLH)
05:56AM 30.6043 -84.1371 131° Southeast 572 658 37,000  Level FlightAware ADS-B (KTLH)
05:57AM 30.5310 -84.0403 131° Southeast 572 658 37,000  Level FlightAware ADS-B (KTLH)
05:58AM 30.4788 -83.9713 131° Southeast 571 657 37,000 60 Level FlightAware ADS-B (KTLH)
05:58AM 30.4299 -83.9070 131° Southeast 571 657 37,100 60 Climbing FlightAware ADS-B (KTLH)
05:59AM 30.3553 -83.8109 132° Southeast 571 657 37,100  Level FlightAware ADS-B (KTLH)
05:59AM 30.3026 -83.7423 132° Southeast 570 656 37,100  Level FlightAware ADS-B (KTLH)
06:00AM 30.2348 -83.6532 131° Southeast 570 656 37,100  Level FlightAware ADS-B (KTLH)
06:01AM 30.1700 -83.5690 132° Southeast 568 654 37,100  Level FlightAware
06:01AM 30.1130 -83.4950 132° Southeast 568 654 37,100 -120 Level FlightAware
06:02AM 30.0570 -83.4220 132° Southeast 568 654 37,000 -960 Descending FlightAware
06:02AM 30.0040 -83.3550 132° Southeast 565 650 36,100 -2,400 Descending FlightAware
06:03AM 29.9420 -83.2730 131° Southeast 563 648 34,300 -2,340 Descending FlightAware
06:03AM 29.8810 -83.1950 132° Southeast 538 619 33,300 -1,740 Descending FlightAware
06:04AM 29.8240 -83.1210 132° Southeast 514 592 32,300 -2,580 Descending FlightAware
06:05AM 29.7560 -83.0350 132° Southeast 509 586 30,000 -2,820 Descending FlightAware
06:05AM 29.6980 -82.9610 132° Southeast 494 568 28,700 -2,100 Descending FlightAware
06:06AM 29.6120 -82.8500 132° Southeast 473 544 26,800 -1,920 Descending FlightAware
06:07AM 29.5580 -82.7800 132° Southeast 460 529 25,700 -1,860 Descending FlightAware
06:08AM 29.4960 -82.7020 132° Southeast 451 519 24,300 -1,860 Descending FlightAware
06:09AM 29.4030 -82.5850 132° Southeast 436 502 22,300 -1,920 Descending FlightAware
06:09AM 29.3550 -82.5240 132° Southeast 426 490 21,000 -2,160 Descending FlightAware
06:10AM 29.3000 -82.4540 132° Southeast 414 476 19,600 -2,160 Descending FlightAware
06:10AM 29.2590 -82.4030 133° Southeast 410 472 18,400 -2,160 Descending FlightAware
06:11AM 29.2110 -82.3420 132° Southeast 400 460 17,100 -1,980 Descending FlightAware
06:12AM 29.1640 -82.2830 132° Southeast 392 451 15,900 -1,860 Descending FlightAware
06:12AM 29.1150 -82.2210 132° Southeast 377 434 14,700 -1,800 Descending FlightAware
06:13AM 29.0820 -82.1800 133° Southeast 365 420 13,900 -1,920 Descending FlightAware
06:13AM 29.0450 -82.1340 133° Southeast 364 419 12,800 -1,380 Descending FlightAware
06:14AM 29.0000 -82.0780 133° Southeast 334 384 12,200 -720 Descending FlightAware
06:15AM 28.9740 -82.0440 131° Southeast 331 381 12,000 -720 Descending FlightAware
06:15AM 28.9260 -81.9850 133° Southeast 317 365 11,400 -780 Descending FlightAware
06:16AM 28.8825 -81.9310 133° Southeast 309 356 10,900 -360 Descending FlightAware ADS-B (KMCO)
06:17AM 28.8231 -81.8256 123° Southeast 306 352 10,700 -300 Descending FlightAware ADS-B (KMCO)
06:19AM 28.7686 -81.7334 124° Southeast 299 344 10,200 -600 Descending FlightAware ADS-B (KMCO)
06:19AM 28.7566 -81.7123 123° Southeast 296 341 9,900 -1,200 Descending FlightAware ADS-B (KMCO)
06:19AM 28.7427 -81.6788 115° Southeast 291 335 9,400 -1,320 Descending FlightAware ADS-B (KMCO)
06:20AM 28.7314 -81.6462 111° Southeast 287 330 8,900 -1,440 Descending FlightAware ADS-B (KMCO)
06:20AM 28.7220 -81.6180 111° Southeast 285 328 8,400 -1,200 Descending FlightAware ADS-B (KMCO)
06:20AM 28.7130 -81.5901 110° East 278 320 8,100 -900 Descending FlightAware ADS-B (KMCO)
06:21AM 28.7040 -81.5617 110° East 268 308 7,800 -840 Descending FlightAware ADS-B (KMCO)
06:21AM 28.6976 -81.5420 110° East 260 299 7,600 -780 Descending FlightAware ADS-B (EGNC / CAX)
06:21AM 28.6915 -81.5231 110° East 252 290 7,400 -600 Descending FlightAware ADS-B (KMCO)
06:21AM 28.6859 -81.5057 110° East 245 282 7,300 -960 Descending FlightAware ADS-B (EGNC / CAX)
06:22AM 28.6790 -81.4839 110° East 243 280 6,900 -1,500 Descending FlightAware ADS-B (KMCO)
06:22AM 28.6715 -81.4596 109° East 246 283 6,400 -1,680 Descending FlightAware ADS-B (KMCO)
06:22AM 28.6635 -81.4349 110° East 255 293 5,800 -1,980 Descending FlightAware ADS-B (KMCO)
06:23AM 28.6540 -81.4069 111° Southeast 256 295 5,000 -2,220 Descending FlightAware ADS-B (EGNC / CAX)
06:23AM 28.6485 -81.3968 122° Southeast 253 291 4,600 -2,340 Descending FlightAware ADS-B (EGNC / CAX)
06:23AM 28.6370 -81.3856 140° Southeast 250 288 4,200 -2,220 Descending FlightAware ADS-B (EGNC / CAX)
06:23AM 28.6176 -81.3727 150° Southeast 245 282 3,500 -1,920 Descending FlightAware ADS-B (EGNC / CAX)
06:24AM 28.6026 -81.3625 149° Southeast 240 276 3,000 -1,440 Descending FlightAware ADS-B (EGNC / CAX)
06:24AM 28.5790 -81.3468 150° Southeast 213 245 2,500 -960 Descending FlightAware ADS-B (KMCO)
06:24AM 28.5614 -81.3374 155° Southeast 184 212 2,300 -600 Descending FlightAware ADS-B (KMCO)
06:25AM 28.5448 -81.3325 165° South 157 181 2,100 -900 Descending FlightAware ADS-B (KMCO)
06:25AM 28.5308 -81.3302 172° South 142 163 1,700 -1,260 Descending FlightAware ADS-B (KMCO)
06:25AM 28.5191 -81.3288 174° South 132 152 1,300 -900 Descending FlightAware ADS-B (KMCO)
06:26AM 28.5054 -81.3279 177° South 134 154 1,100 -600 Descending FlightAware ADS-B (KMCO)
06:26AM 28.4935 -81.3276 179° South 137 158 900 -780 Descending FlightAware ADS-B (KMCO)
06:26AM 28.4791 -81.3273 179° South 157 181 600 -900 Descending FlightAware ADS-B (KMCO)
06:27AM 28.4654 -81.3273 180° South 151 174 300 -720 Descending FlightAware ADS-B (KMCO)
06:27AM 28.4502 -81.3270 179° South 156 180 100 -600 Descending FlightAware ADS-B (KMCO)